createdAt,value
2023-11-25T00:00:00.442Z,2.03
2023-11-25T00:05:00.386Z,1.95
2023-11-25T00:10:00.406Z,2.53
2023-11-25T00:15:00.419Z,2.22
2023-11-25T00:20:00.381Z,2
2023-11-25T00:25:00.389Z,2.61
2023-11-25T00:30:00.383Z,1.55
2023-11-25T00:35:00.404Z,1.16
2023-11-25T00:40:00.459Z,1.26
2023-11-25T00:45:00.409Z,0.95
2023-11-25T00:50:00.404Z,1.04
2023-11-25T00:55:00.406Z,1.11
2023-11-25T01:00:00.407Z,0.83
2023-11-25T01:05:00.481Z,1.01
2023-11-25T01:10:00.386Z,1.27
2023-11-25T01:15:00.388Z,1.43
2023-11-25T01:20:00.426Z,1.57
2023-11-25T01:25:00.426Z,1.75
2023-11-25T01:30:00.399Z,1.44
2023-11-25T01:35:00.404Z,1.62
2023-11-25T01:40:00.386Z,2.06
2023-11-25T01:45:00.394Z,1.69
2023-11-25T01:50:00.385Z,1.54
2023-11-25T01:55:00.401Z,1.33
2023-11-25T02:00:00.388Z,1.65
2023-11-25T02:05:00.441Z,1.34
2023-11-25T02:10:00.415Z,1.68
2023-11-25T02:15:00.391Z,1.92
2023-11-25T02:20:00.390Z,1.84
2023-11-25T02:25:00.392Z,2.33
2023-11-25T02:30:00.425Z,1.81
2023-11-25T02:35:00.389Z,2.19
2023-11-25T02:40:00.394Z,2.26
2023-11-25T02:45:00.393Z,2.43
2023-11-25T02:50:00.394Z,2.78
2023-11-25T02:55:00.401Z,2.41
2023-11-25T03:00:00.398Z,3.04
2023-11-25T03:05:00.386Z,2.15
2023-11-25T03:10:00.390Z,2.46
2023-11-25T03:15:00.400Z,2.15
2023-11-25T03:20:00.403Z,2.09
2023-11-25T03:25:00.405Z,2.01
2023-11-25T03:30:00.396Z,2.49
2023-11-25T03:35:01.512Z,1.91
2023-11-25T03:40:00.387Z,1.98
2023-11-25T03:45:00.390Z,2.34
2023-11-25T03:50:00.446Z,2.17
2023-11-25T03:55:00.420Z,2.24
2023-11-25T04:00:00.403Z,1.92
2023-11-25T04:05:00.449Z,2.22
2023-11-25T04:10:00.407Z,2.02
2023-11-25T04:15:00.389Z,2.23
2023-11-25T04:20:00.405Z,1.95
2023-11-25T04:25:00.404Z,1.81
2023-11-25T04:30:00.389Z,2.13
2023-11-25T04:35:00.383Z,2.43
2023-11-25T04:40:00.388Z,1.89
2023-11-25T04:45:00.406Z,2.12
2023-11-25T04:50:00.389Z,2.59
2023-11-25T04:55:00.403Z,2.69
2023-11-25T05:00:00.393Z,2.19
2023-11-25T05:05:00.381Z,2.49
2023-11-25T05:10:00.386Z,2.39
2023-11-25T05:15:00.394Z,3.01
2023-11-25T05:20:00.461Z,2.66
2023-11-25T05:25:00.398Z,3.21
2023-11-25T05:30:00.402Z,3.37
2023-11-25T05:35:00.393Z,3.71
2023-11-25T05:40:00.386Z,3.56
2023-11-25T05:45:00.399Z,4.26
2023-11-25T05:50:00.390Z,3.52
2023-11-25T05:55:00.409Z,3.58
2023-11-25T06:00:00.385Z,4.71
2023-11-25T06:05:00.499Z,5.52
2023-11-25T06:10:00.419Z,5.7
2023-11-25T06:15:00.411Z,5.61
2023-11-25T06:20:00.404Z,5.75
2023-11-25T06:25:00.410Z,4.82
2023-11-25T06:30:00.393Z,5.22
2023-11-25T06:35:00.439Z,4.17
2023-11-25T06:40:00.399Z,4.01
2023-11-25T06:45:00.388Z,4.57
2023-11-25T06:50:00.403Z,3.37
2023-11-25T06:55:00.528Z,3.33
2023-11-25T07:00:00.397Z,3.81
2023-11-25T07:05:00.401Z,4.39
2023-11-25T07:10:00.405Z,4.6
2023-11-25T07:15:00.394Z,5.55
2023-11-25T07:20:00.396Z,4.41
2023-11-25T07:25:00.408Z,3.88
2023-11-25T07:30:00.384Z,3.76
2023-11-25T07:35:00.389Z,3.78
2023-11-25T07:40:00.397Z,3.96
2023-11-25T07:45:00.405Z,3.51
2023-11-25T07:50:00.398Z,3.56
2023-11-25T07:55:00.556Z,3.22
2023-11-25T08:00:00.388Z,2.81
2023-11-25T08:05:00.430Z,2.71
2023-11-25T08:10:00.392Z,3.57
2023-11-25T08:15:00.402Z,3.73
2023-11-25T08:20:00.409Z,3.25
2023-11-25T08:25:00.401Z,3.06
2023-11-25T08:30:00.413Z,4.42
2023-11-25T08:35:00.408Z,3.48
2023-11-25T08:40:00.393Z,2.99
2023-11-25T08:45:00.391Z,3.01
2023-11-25T08:50:00.562Z,3.22
2023-11-25T08:55:00.514Z,3.16
2023-11-25T09:00:00.404Z,3.1
2023-11-25T09:05:06.452Z,3.07
2023-11-25T09:10:00.427Z,2.56
2023-11-25T09:15:00.395Z,3.23
2023-11-25T09:20:00.439Z,3
2023-11-25T09:25:00.399Z,14.13
2023-11-25T09:30:00.408Z,3.49
2023-11-25T09:35:00.455Z,3.38
2023-11-25T09:40:00.387Z,3
2023-11-25T09:45:00.416Z,3.3
2023-11-25T09:50:00.411Z,3.5
2023-11-25T09:55:00.519Z,2.88
2023-11-25T10:00:00.387Z,3.46
2023-11-25T10:05:00.383Z,5.77
2023-11-25T10:10:00.387Z,2.95
2023-11-25T10:15:00.387Z,3.23
2023-11-25T10:20:00.401Z,4.02
2023-11-25T10:25:00.385Z,2.8
2023-11-25T10:30:00.449Z,2.21
2023-11-25T10:35:00.391Z,3.43
2023-11-25T10:40:00.408Z,2.91
2023-11-25T10:45:00.392Z,2.99
2023-11-25T10:50:00.417Z,3.74
2023-11-25T10:55:00.453Z,6.79
2023-11-25T11:00:00.389Z,4.98
2023-11-25T11:05:00.398Z,3.44
2023-11-25T11:10:00.386Z,3.39
2023-11-25T11:15:00.392Z,3.28
2023-11-25T11:20:00.413Z,3.33
2023-11-25T11:25:00.420Z,3.75
2023-11-25T11:30:00.398Z,8.33
2023-11-25T11:35:00.431Z,3.22
2023-11-25T11:40:00.387Z,4.16
2023-11-25T11:45:00.585Z,3.72
2023-11-25T11:50:00.403Z,3.49
2023-11-25T11:55:00.439Z,3.81
2023-11-25T12:00:00.427Z,4.63
2023-11-25T12:05:00.699Z,5.33
2023-11-25T12:10:00.401Z,3.69
2023-11-25T12:15:00.391Z,4.82
2023-11-25T12:20:00.468Z,3.78
2023-11-25T12:25:00.387Z,4.25
2023-11-25T12:30:00.381Z,4.45
2023-11-25T12:35:00.405Z,5.29
2023-11-25T12:40:00.406Z,4.53
2023-11-25T12:45:00.389Z,4.3
2023-11-25T12:50:00.408Z,5.69
2023-11-25T12:55:00.400Z,6.38
2023-11-25T13:00:00.400Z,5.06
2023-11-25T13:05:00.410Z,6.01
2023-11-25T13:10:00.482Z,6.25
2023-11-25T13:15:00.469Z,6.4
2023-11-25T13:20:00.451Z,7.24
2023-11-25T13:25:00.398Z,10.86
2023-11-25T13:30:00.447Z,10.07
2023-11-25T13:35:00.395Z,10.85
2023-11-25T13:40:00.389Z,9.79
2023-11-25T13:45:02.474Z,10.89
2023-11-25T13:50:00.468Z,12.81
2023-11-25T13:55:00.419Z,14.84
2023-11-25T14:00:00.384Z,12.09
2023-11-25T14:05:00.421Z,12.42
2023-11-25T14:10:00.389Z,10.98
2023-11-25T14:15:00.391Z,11.04
2023-11-25T14:20:00.440Z,9.61
2023-11-25T14:25:00.385Z,5.82
2023-11-25T14:30:00.423Z,6.18
2023-11-25T14:35:00.440Z,7.35
2023-11-25T14:40:01.246Z,6.41
2023-11-25T14:45:00.402Z,6.83
2023-11-25T14:50:00.428Z,3.42
2023-11-25T14:55:00.413Z,4.11
2023-11-25T15:00:00.403Z,4.39
2023-11-25T15:05:00.448Z,3.64
2023-11-25T15:10:00.441Z,2.83
2023-11-25T15:15:00.402Z,2.91
2023-11-25T15:20:00.471Z,3.9
2023-11-25T15:25:00.388Z,3.18
2023-11-25T15:30:00.561Z,3.84
2023-11-25T15:35:00.440Z,4.23
2023-11-25T15:40:00.402Z,6.28
2023-11-25T15:45:00.387Z,4.52
2023-11-25T15:50:00.434Z,3.88
2023-11-25T15:55:00.387Z,3.69
2023-11-25T16:00:00.383Z,4.11
2023-11-25T16:05:00.491Z,5.07
2023-11-25T16:10:00.397Z,4.64
2023-11-25T16:15:00.433Z,5.32
2023-11-25T16:20:00.416Z,3.84
2023-11-25T16:25:00.413Z,4.43
2023-11-25T16:30:00.397Z,5.19
2023-11-25T16:35:00.473Z,5.03
2023-11-25T16:40:00.502Z,4.39
2023-11-25T16:45:00.389Z,3.91
2023-11-25T16:50:00.433Z,3.97
2023-11-25T16:55:00.391Z,3.35
2023-11-25T17:00:00.405Z,3.29
2023-11-25T17:05:00.539Z,3.85
2023-11-25T17:10:00.413Z,4.26
2023-11-25T17:15:00.393Z,14.59
2023-11-25T17:20:00.591Z,5.49
2023-11-25T17:25:00.396Z,5.63
2023-11-25T17:30:00.384Z,5.32
2023-11-25T17:35:00.507Z,7.22
2023-11-25T17:40:00.400Z,6.56
2023-11-25T17:45:00.392Z,6.6
2023-11-25T17:50:00.451Z,6.49
2023-11-25T17:55:00.395Z,6.36
2023-11-25T18:00:00.553Z,7.05
2023-11-25T18:05:00.456Z,6.24
2023-11-25T18:10:00.393Z,6
2023-11-25T18:15:00.409Z,5.54
2023-11-25T18:20:00.462Z,5.21
2023-11-25T18:25:00.394Z,5.14
2023-11-25T18:30:00.387Z,5.04
2023-11-25T18:35:00.425Z,6.08
2023-11-25T18:40:00.388Z,5.82
2023-11-25T18:45:00.401Z,5.98
2023-11-25T18:50:00.410Z,6.13
2023-11-25T18:55:00.387Z,6.62
2023-11-25T19:00:00.405Z,6.67
2023-11-25T19:05:00.433Z,6.68
2023-11-25T19:10:00.387Z,6.3
2023-11-25T19:15:00.412Z,6.4
2023-11-25T19:20:00.552Z,5.21
2023-11-25T19:25:00.386Z,5.07
2023-11-25T19:30:00.393Z,3.96
2023-11-25T19:35:00.415Z,3.85
2023-11-25T19:40:00.395Z,3.93
2023-11-25T19:45:00.398Z,4.45
2023-11-25T19:50:00.445Z,4.06
2023-11-25T19:55:00.405Z,4.35
2023-11-25T20:00:00.383Z,3.97
2023-11-25T20:05:00.668Z,4.29
2023-11-25T20:10:00.427Z,4.3
2023-11-25T20:15:00.394Z,3.09
2023-11-25T20:20:00.524Z,2.5
2023-11-25T20:25:00.409Z,2.91
2023-11-25T20:30:00.402Z,2.84
2023-11-25T20:35:00.458Z,3
2023-11-25T20:40:00.385Z,3.33
2023-11-25T20:45:00.397Z,7.96
2023-11-25T20:50:00.403Z,4.32
2023-11-25T20:55:00.400Z,4.61
2023-11-25T21:00:00.403Z,4.82
2023-11-25T21:05:00.452Z,4.68
2023-11-25T21:10:00.402Z,4.75
2023-11-25T21:15:00.398Z,4.99
2023-11-25T21:20:00.483Z,4.54
2023-11-25T21:25:00.406Z,8.48
2023-11-25T21:30:00.398Z,10.76
2023-11-25T21:35:00.419Z,7.42
2023-11-25T21:40:06.249Z,6.04
2023-11-25T21:45:00.417Z,14.82
2023-11-25T21:50:00.429Z,5.5
2023-11-25T21:55:00.395Z,6.29
2023-11-25T22:00:00.388Z,6.06
2023-11-25T22:05:00.435Z,6.24
2023-11-25T22:10:00.397Z,6.99
2023-11-25T22:15:00.388Z,7.06
2023-11-25T22:20:00.462Z,7.38
2023-11-25T22:25:00.390Z,6.71
2023-11-25T22:30:00.395Z,6.83
2023-11-25T22:35:00.438Z,7.42
2023-11-25T22:40:00.431Z,6.94
2023-11-25T22:45:00.405Z,6.97
2023-11-25T22:50:00.496Z,6.81
2023-11-25T22:55:00.416Z,7.1
2023-11-25T23:00:00.388Z,5.06
2023-11-25T23:05:00.465Z,4.59
2023-11-25T23:10:00.389Z,4.33
2023-11-25T23:15:00.485Z,4.65
2023-11-25T23:20:00.451Z,4.88
2023-11-25T23:25:00.404Z,3.91
2023-11-25T23:30:00.424Z,4.85
2023-11-25T23:35:00.458Z,4.69
2023-11-25T23:40:00.398Z,4.91
2023-11-25T23:45:00.403Z,4.48
2023-11-25T23:50:00.489Z,4.69
2023-11-25T23:55:00.389Z,4.74
